sensor_id;sensor_type;location;lat;lon;timestamp;P1;durP1;ratioP1;P2;durP2;ratioP2
65279;SDS011;51878;55.748;48.742;2023-05-10T00:00:22;3.17;;;1.45;;
65279;SDS011;51878;55.748;48.742;2023-05-10T00:05:25;5.38;;;1.48;;
65279;SDS011;51878;55.748;48.742;2023-05-10T00:10:27;1.83;;;1.30;;
65279;SDS011;51878;55.748;48.742;2023-05-10T00:15:29;1.40;;;1.30;;
65279;SDS011;51878;55.748;48.742;2023-05-10T00:20:32;3.58;;;1.70;;
65279;SDS011;51878;55.748;48.742;2023-05-10T00:25:34;1.50;;;1.40;;
65279;SDS011;51878;55.748;48.742;2023-05-10T00:30:36;6.35;;;3.50;;
65279;SDS011;51878;55.748;48.742;2023-05-10T00:35:38;8.35;;;4.90;;
65279;SDS011;51878;55.748;48.742;2023-05-10T00:40:40;15.75;;;7.82;;
65279;SDS011;51878;55.748;48.742;2023-05-10T00:45:43;12.98;;;4.20;;
65279;SDS011;51878;55.748;48.742;2023-05-10T00:50:46;4.20;;;2.70;;
65279;SDS011;51878;55.748;48.742;2023-05-10T00:55:48;4.95;;;2.67;;
65279;SDS011;51878;55.748;48.742;2023-05-10T01:00:50;3.92;;;2.45;;
65279;SDS011;51878;55.748;48.742;2023-05-10T01:05:54;7.72;;;2.50;;
65279;SDS011;51878;55.748;48.742;2023-05-10T01:10:57;19.83;;;8.80;;
65279;SDS011;51878;55.748;48.742;2023-05-10T01:15:59;34.90;;;13.68;;
65279;SDS011;51878;55.748;48.742;2023-05-10T01:21:14;16.80;;;9.15;;
65279;SDS011;51878;55.748;48.742;2023-05-10T01:43:22;5.00;;;2.65;;
65279;SDS011;51878;55.748;48.742;2023-05-10T01:48:30;6.15;;;2.58;;
65279;SDS011;51878;55.748;48.742;2023-05-10T01:53:34;2.85;;;1.58;;
65279;SDS011;51878;55.748;48.742;2023-05-10T01:58:39;2.60;;;1.63;;
65279;SDS011;51878;55.748;48.742;2023-05-10T02:03:45;1.90;;;1.20;;
65279;SDS011;51878;55.748;48.742;2023-05-10T02:08:49;3.28;;;1.70;;
65279;SDS011;51878;55.748;48.742;2023-05-10T02:13:53;2.15;;;1.33;;
65279;SDS011;51878;55.748;48.742;2023-05-10T02:18:56;3.63;;;1.20;;
65279;SDS011;51878;55.748;48.742;2023-05-10T02:24:01;5.93;;;1.20;;
65279;SDS011;51878;55.748;48.742;2023-05-10T02:29:06;1.30;;;1.20;;
65279;SDS011;51878;55.748;48.742;2023-05-10T02:34:09;1.40;;;1.10;;
65279;SDS011;51878;55.748;48.742;2023-05-10T02:39:13;2.00;;;1.23;;
65279;SDS011;51878;55.748;48.742;2023-05-10T02:44:20;1.98;;;1.38;;
65279;SDS011;51878;55.748;48.742;2023-05-10T02:49:25;3.22;;;1.40;;
65279;SDS011;51878;55.748;48.742;2023-05-10T02:54:29;1.20;;;1.10;;
65279;SDS011;51878;55.748;48.742;2023-05-10T02:59:34;1.48;;;1.20;;
65279;SDS011;51878;55.748;48.742;2023-05-10T03:04:36;4.28;;;1.70;;
65279;SDS011;51878;55.748;48.742;2023-05-10T03:09:41;2.22;;;1.30;;
65279;SDS011;51878;55.748;48.742;2023-05-10T03:20:09;2.35;;;1.50;;
65279;SDS011;51878;55.748;48.742;2023-05-10T03:25:15;2.38;;;1.38;;
65279;SDS011;51878;55.748;48.742;2023-05-10T03:30:18;1.58;;;1.20;;
65279;SDS011;51878;55.748;48.742;2023-05-10T03:35:21;3.15;;;1.30;;
65279;SDS011;51878;55.748;48.742;2023-05-10T03:40:24;5.72;;;1.20;;
65279;SDS011;51878;55.748;48.742;2023-05-10T03:45:27;2.00;;;1.25;;
65279;SDS011;51878;55.748;48.742;2023-05-10T03:50:32;3.13;;;1.35;;
65279;SDS011;51878;55.748;48.742;2023-05-10T03:55:34;2.28;;;1.40;;
65279;SDS011;51878;55.748;48.742;2023-05-10T04:00:38;2.80;;;1.25;;
65279;SDS011;51878;55.748;48.742;2023-05-10T04:05:45;5.68;;;1.45;;
65279;SDS011;51878;55.748;48.742;2023-05-10T04:10:47;2.78;;;1.33;;
65279;SDS011;51878;55.748;48.742;2023-05-10T04:15:49;2.05;;;1.25;;
65279;SDS011;51878;55.748;48.742;2023-05-10T04:20:52;3.85;;;1.52;;
65279;SDS011;51878;55.748;48.742;2023-05-10T04:26:01;3.83;;;1.30;;
65279;SDS011;51878;55.748;48.742;2023-05-10T04:31:06;3.78;;;1.13;;
65279;SDS011;51878;55.748;48.742;2023-05-10T04:36:11;2.10;;;1.00;;
65279;SDS011;51878;55.748;48.742;2023-05-10T04:41:13;1.50;;;1.20;;
65279;SDS011;51878;55.748;48.742;2023-05-10T04:46:15;1.83;;;1.25;;
65279;SDS011;51878;55.748;48.742;2023-05-10T04:51:17;1.58;;;1.10;;
65279;SDS011;51878;55.748;48.742;2023-05-10T04:56:20;6.70;;;1.33;;
65279;SDS011;51878;55.748;48.742;2023-05-10T05:01:25;3.92;;;1.15;;
65279;SDS011;51878;55.748;48.742;2023-05-10T05:06:30;2.25;;;1.10;;
65279;SDS011;51878;55.748;48.742;2023-05-10T05:11:32;2.40;;;0.80;;
65279;SDS011;51878;55.748;48.742;2023-05-10T05:16:34;1.30;;;0.98;;
65279;SDS011;51878;55.748;48.742;2023-05-10T05:21:38;1.13;;;1.02;;
65279;SDS011;51878;55.748;48.742;2023-05-10T05:26:40;4.72;;;1.02;;
65279;SDS011;51878;55.748;48.742;2023-05-10T05:31:45;1.88;;;1.30;;
65279;SDS011;51878;55.748;48.742;2023-05-10T05:36:50;4.70;;;1.15;;
65279;SDS011;51878;55.748;48.742;2023-05-10T05:41:52;2.25;;;1.10;;
65279;SDS011;51878;55.748;48.742;2023-05-10T05:46:54;4.82;;;0.90;;
65279;SDS011;51878;55.748;48.742;2023-05-10T05:51:59;5.25;;;2.00;;
65279;SDS011;51878;55.748;48.742;2023-05-10T05:57:03;5.40;;;0.98;;
65279;SDS011;51878;55.748;48.742;2023-05-10T06:02:05;4.55;;;0.80;;
65279;SDS011;51878;55.748;48.742;2023-05-10T06:07:11;1.17;;;0.90;;
65279;SDS011;51878;55.748;48.742;2023-05-10T06:12:13;1.13;;;1.02;;
65279;SDS011;51878;55.748;48.742;2023-05-10T06:17:18;2.33;;;0.90;;
65279;SDS011;51878;55.748;48.742;2023-05-10T06:22:20;5.05;;;1.10;;
65279;SDS011;51878;55.748;48.742;2023-05-10T06:27:24;1.13;;;1.10;;
65279;SDS011;51878;55.748;48.742;2023-05-10T06:32:27;4.95;;;1.00;;
65279;SDS011;51878;55.748;48.742;2023-05-10T06:37:30;2.05;;;1.00;;
65279;SDS011;51878;55.748;48.742;2023-05-10T06:42:32;3.78;;;1.20;;
65279;SDS011;51878;55.748;48.742;2023-05-10T06:47:34;3.38;;;1.65;;
65279;SDS011;51878;55.748;48.742;2023-05-10T06:52:39;4.13;;;1.33;;
65279;SDS011;51878;55.748;48.742;2023-05-10T06:57:41;3.75;;;1.20;;
65279;SDS011;51878;55.748;48.742;2023-05-10T07:02:43;1.02;;;1.00;;
65279;SDS011;51878;55.748;48.742;2023-05-10T07:07:46;5.38;;;1.20;;
65279;SDS011;51878;55.748;48.742;2023-05-10T07:12:51;1.50;;;1.40;;
65279;SDS011;51878;55.748;48.742;2023-05-10T07:17:55;1.95;;;1.00;;
65279;SDS011;51878;55.748;48.742;2023-05-10T07:23:00;3.20;;;1.33;;
65279;SDS011;51878;55.748;48.742;2023-05-10T07:28:05;2.67;;;1.20;;
65279;SDS011;51878;55.748;48.742;2023-05-10T07:33:08;2.90;;;1.20;;
65279;SDS011;51878;55.748;48.742;2023-05-10T07:38:13;1.02;;;0.82;;
65279;SDS011;51878;55.748;48.742;2023-05-10T07:43:15;1.58;;;1.20;;
65279;SDS011;51878;55.748;48.742;2023-05-10T07:48:19;2.45;;;1.20;;
65279;SDS011;51878;55.748;48.742;2023-05-10T07:53:21;2.05;;;1.13;;
65279;SDS011;51878;55.748;48.742;2023-05-10T07:58:26;5.90;;;1.30;;
65279;SDS011;51878;55.748;48.742;2023-05-10T08:03:29;1.60;;;1.20;;
65279;SDS011;51878;55.748;48.742;2023-05-10T08:08:31;4.95;;;1.92;;
65279;SDS011;51878;55.748;48.742;2023-05-10T08:13:57;2.15;;;1.13;;
65279;SDS011;51878;55.748;48.742;2023-05-10T08:18:59;4.93;;;1.25;;
65279;SDS011;51878;55.748;48.742;2023-05-10T08:24:04;4.28;;;1.10;;
65279;SDS011;51878;55.748;48.742;2023-05-10T08:29:07;1.63;;;1.10;;
65279;SDS011;51878;55.748;48.742;2023-05-10T08:34:09;5.03;;;1.10;;
65279;SDS011;51878;55.748;48.742;2023-05-10T08:39:11;1.15;;;1.10;;
65279;SDS011;51878;55.748;48.742;2023-05-10T08:44:23;5.30;;;1.30;;
65279;SDS011;51878;55.748;48.742;2023-05-10T08:49:26;3.25;;;1.40;;
65279;SDS011;51878;55.748;48.742;2023-05-10T08:54:32;1.58;;;1.23;;
65279;SDS011;51878;55.748;48.742;2023-05-10T08:59:36;1.42;;;1.00;;
65279;SDS011;51878;55.748;48.742;2023-05-10T09:04:40;5.93;;;1.15;;
65279;SDS011;51878;55.748;48.742;2023-05-10T09:09:43;2.45;;;1.17;;
65279;SDS011;51878;55.748;48.742;2023-05-10T09:14:52;1.63;;;1.20;;
65279;SDS011;51878;55.748;48.742;2023-05-10T09:19:58;2.30;;;1.30;;
65279;SDS011;51878;55.748;48.742;2023-05-10T09:25:07;1.70;;;1.20;;
65279;SDS011;51878;55.748;48.742;2023-05-10T09:30:11;1.20;;;1.10;;
65279;SDS011;51878;55.748;48.742;2023-05-10T09:35:27;2.88;;;1.30;;
65279;SDS011;51878;55.748;48.742;2023-05-10T09:40:31;1.52;;;1.10;;
65279;SDS011;51878;55.748;48.742;2023-05-10T09:45:44;2.97;;;1.35;;
65279;SDS011;51878;55.748;48.742;2023-05-10T09:50:56;4.68;;;1.20;;
65279;SDS011;51878;55.748;48.742;2023-05-10T09:55:59;2.50;;;1.40;;
65279;SDS011;51878;55.748;48.742;2023-05-10T10:01:11;1.42;;;1.10;;
65279;SDS011;51878;55.748;48.742;2023-05-10T10:06:18;4.57;;;1.40;;
65279;SDS011;51878;55.748;48.742;2023-05-10T10:11:31;1.98;;;1.15;;
65279;SDS011;51878;55.748;48.742;2023-05-10T10:16:37;2.30;;;1.30;;
65279;SDS011;51878;55.748;48.742;2023-05-10T10:21:49;2.13;;;1.48;;
65279;SDS011;51878;55.748;48.742;2023-05-10T10:26:52;1.80;;;1.20;;
65279;SDS011;51878;55.748;48.742;2023-05-10T10:37:46;3.13;;;1.25;;
65279;SDS011;51878;55.748;48.742;2023-05-10T10:42:49;3.80;;;1.38;;
65279;SDS011;51878;55.748;48.742;2023-05-10T10:48:37;1.40;;;1.30;;
65279;SDS011;51878;55.748;48.742;2023-05-10T10:53:26;3.15;;;1.30;;
65279;SDS011;51878;55.748;48.742;2023-05-10T10:58:33;2.10;;;1.00;;
65279;SDS011;51878;55.748;48.742;2023-05-10T11:03:36;4.45;;;1.30;;
65279;SDS011;51878;55.748;48.742;2023-05-10T11:08:42;4.80;;;1.27;;
65279;SDS011;51878;55.748;48.742;2023-05-10T11:13:46;1.77;;;1.20;;
65279;SDS011;51878;55.748;48.742;2023-05-10T11:18:52;2.47;;;1.23;;
65279;SDS011;51878;55.748;48.742;2023-05-10T11:23:56;1.30;;;1.20;;
65279;SDS011;51878;55.748;48.742;2023-05-10T11:28:59;2.08;;;1.30;;
65279;SDS011;51878;55.748;48.742;2023-05-10T11:34:03;6.03;;;1.63;;
65279;SDS011;51878;55.748;48.742;2023-05-10T11:39:05;4.35;;;1.35;;
65279;SDS011;51878;55.748;48.742;2023-05-10T11:44:08;2.95;;;1.23;;
65279;SDS011;51878;55.748;48.742;2023-05-10T11:49:11;1.55;;;1.20;;
65279;SDS011;51878;55.748;48.742;2023-05-10T11:54:14;2.60;;;1.20;;
65279;SDS011;51878;55.748;48.742;2023-05-10T11:59:19;2.75;;;1.20;;
65279;SDS011;51878;55.748;48.742;2023-05-10T12:04:21;2.45;;;1.38;;
65279;SDS011;51878;55.748;48.742;2023-05-10T12:09:26;5.32;;;1.67;;
65279;SDS011;51878;55.748;48.742;2023-05-10T12:14:43;5.18;;;1.08;;
65279;SDS011;51878;55.748;48.742;2023-05-10T12:19:45;6.13;;;1.40;;
65279;SDS011;51878;55.748;48.742;2023-05-10T12:24:49;3.33;;;1.10;;
65279;SDS011;51878;55.748;48.742;2023-05-10T12:29:54;5.45;;;1.38;;
65279;SDS011;51878;55.748;48.742;2023-05-10T12:34:57;4.75;;;1.42;;
65279;SDS011;51878;55.748;48.742;2023-05-10T12:39:59;2.88;;;1.25;;
65279;SDS011;51878;55.748;48.742;2023-05-10T12:45:02;4.05;;;1.30;;
65279;SDS011;51878;55.748;48.742;2023-05-10T12:50:05;2.40;;;1.40;;
65279;SDS011;51878;55.748;48.742;2023-05-10T12:55:08;17.60;;;2.70;;
65279;SDS011;51878;55.748;48.742;2023-05-10T13:00:10;2.75;;;1.30;;
65279;SDS011;51878;55.748;48.742;2023-05-10T13:05:13;4.88;;;1.48;;
65279;SDS011;51878;55.748;48.742;2023-05-10T13:10:15;2.63;;;1.30;;
65279;SDS011;51878;55.748;48.742;2023-05-10T13:15:19;1.63;;;1.17;;
65279;SDS011;51878;55.748;48.742;2023-05-10T13:20:22;3.30;;;1.48;;
65279;SDS011;51878;55.748;48.742;2023-05-10T13:25:24;8.52;;;1.65;;
65279;SDS011;51878;55.748;48.742;2023-05-10T13:30:26;3.63;;;1.35;;
65279;SDS011;51878;55.748;48.742;2023-05-10T13:35:28;3.00;;;1.33;;
65279;SDS011;51878;55.748;48.742;2023-05-10T13:40:31;3.65;;;1.20;;
65279;SDS011;51878;55.748;48.742;2023-05-10T13:45:37;1.97;;;1.20;;
65279;SDS011;51878;55.748;48.742;2023-05-10T13:50:40;3.55;;;1.23;;
65279;SDS011;51878;55.748;48.742;2023-05-10T13:55:42;1.50;;;1.40;;
65279;SDS011;51878;55.748;48.742;2023-05-10T14:00:44;1.98;;;1.30;;
65279;SDS011;51878;55.748;48.742;2023-05-10T14:05:49;1.58;;;1.20;;
65279;SDS011;51878;55.748;48.742;2023-05-10T14:10:52;3.30;;;1.20;;
65279;SDS011;51878;55.748;48.742;2023-05-10T14:15:55;4.32;;;1.50;;
65279;SDS011;51878;55.748;48.742;2023-05-10T14:20:57;1.52;;;1.20;;
65279;SDS011;51878;55.748;48.742;2023-05-10T14:26:00;3.88;;;1.20;;
65279;SDS011;51878;55.748;48.742;2023-05-10T14:31:02;7.53;;;1.40;;
65279;SDS011;51878;55.748;48.742;2023-05-10T14:36:04;7.15;;;3.83;;
65279;SDS011;51878;55.748;48.742;2023-05-10T14:41:07;4.03;;;1.30;;
65279;SDS011;51878;55.748;48.742;2023-05-10T14:46:12;4.38;;;1.55;;
65279;SDS011;51878;55.748;48.742;2023-05-10T14:51:14;2.65;;;1.27;;
65279;SDS011;51878;55.748;48.742;2023-05-10T14:56:19;2.92;;;1.48;;
65279;SDS011;51878;55.748;48.742;2023-05-10T15:01:22;8.30;;;1.88;;
65279;SDS011;51878;55.748;48.742;2023-05-10T15:06:30;3.75;;;1.60;;
65279;SDS011;51878;55.748;48.742;2023-05-10T15:11:33;2.72;;;1.40;;
65279;SDS011;51878;55.748;48.742;2023-05-10T15:16:35;3.15;;;1.42;;
65279;SDS011;51878;55.748;48.742;2023-05-10T15:21:38;7.13;;;1.60;;
65279;SDS011;51878;55.748;48.742;2023-05-10T15:26:43;2.95;;;1.55;;
65279;SDS011;51878;55.748;48.742;2023-05-10T15:31:46;1.67;;;1.30;;
65279;SDS011;51878;55.748;48.742;2023-05-10T15:36:49;11.52;;;1.45;;
65279;SDS011;51878;55.748;48.742;2023-05-10T15:41:52;2.67;;;1.55;;
65279;SDS011;51878;55.748;48.742;2023-05-10T15:46:54;2.20;;;1.20;;
65279;SDS011;51878;55.748;48.742;2023-05-10T15:51:56;5.50;;;1.30;;
65279;SDS011;51878;55.748;48.742;2023-05-10T15:57:02;1.52;;;1.17;;
65279;SDS011;51878;55.748;48.742;2023-05-10T16:02:04;4.00;;;1.45;;
65279;SDS011;51878;55.748;48.742;2023-05-10T16:07:08;23.27;;;2.63;;
65279;SDS011;51878;55.748;48.742;2023-05-10T16:12:10;6.82;;;1.52;;
65279;SDS011;51878;55.748;48.742;2023-05-10T16:17:12;17.70;;;3.65;;
65279;SDS011;51878;55.748;48.742;2023-05-10T16:22:16;23.60;;;3.00;;
65279;SDS011;51878;55.748;48.742;2023-05-10T16:27:18;8.98;;;2.30;;
65279;SDS011;51878;55.748;48.742;2023-05-10T16:32:21;5.63;;;1.85;;
65279;SDS011;51878;55.748;48.742;2023-05-10T16:37:23;13.05;;;1.98;;
65279;SDS011;51878;55.748;48.742;2023-05-10T16:42:26;15.50;;;4.90;;
65279;SDS011;51878;55.748;48.742;2023-05-10T16:47:28;5.20;;;1.70;;
65279;SDS011;51878;55.748;48.742;2023-05-10T16:52:31;2.95;;;1.73;;
65279;SDS011;51878;55.748;48.742;2023-05-10T16:57:34;6.88;;;1.70;;
65279;SDS011;51878;55.748;48.742;2023-05-10T17:02:36;3.40;;;1.65;;
65279;SDS011;51878;55.748;48.742;2023-05-10T17:14:37;5.65;;;1.70;;
65279;SDS011;51878;55.748;48.742;2023-05-10T17:20:06;1.60;;;1.27;;
65279;SDS011;51878;55.748;48.742;2023-05-10T17:25:09;3.90;;;1.55;;
65279;SDS011;51878;55.748;48.742;2023-05-10T17:30:11;4.05;;;1.10;;
65279;SDS011;51878;55.748;48.742;2023-05-10T17:35:14;2.75;;;1.58;;
65279;SDS011;51878;55.748;48.742;2023-05-10T17:40:16;2.33;;;1.30;;
65279;SDS011;51878;55.748;48.742;2023-05-10T17:45:19;2.97;;;1.40;;
65279;SDS011;51878;55.748;48.742;2023-05-10T17:50:21;5.10;;;1.30;;
65279;SDS011;51878;55.748;48.742;2023-05-10T17:55:24;2.95;;;1.20;;
65279;SDS011;51878;55.748;48.742;2023-05-10T18:00:27;5.18;;;1.55;;
65279;SDS011;51878;55.748;48.742;2023-05-10T18:05:30;2.97;;;1.23;;
65279;SDS011;51878;55.748;48.742;2023-05-10T18:10:32;7.00;;;1.67;;
65279;SDS011;51878;55.748;48.742;2023-05-10T18:15:35;1.90;;;1.35;;
65279;SDS011;51878;55.748;48.742;2023-05-10T18:20:37;7.70;;;1.42;;
65279;SDS011;51878;55.748;48.742;2023-05-10T18:25:40;4.88;;;1.40;;
65279;SDS011;51878;55.748;48.742;2023-05-10T18:30:43;6.38;;;1.48;;
65279;SDS011;51878;55.748;48.742;2023-05-10T18:35:45;5.72;;;1.40;;
65279;SDS011;51878;55.748;48.742;2023-05-10T18:40:47;4.93;;;1.40;;
65279;SDS011;51878;55.748;48.742;2023-05-10T18:45:52;4.65;;;1.40;;
65279;SDS011;51878;55.748;48.742;2023-05-10T18:50:55;6.03;;;1.40;;
65279;SDS011;51878;55.748;48.742;2023-05-10T18:55:57;5.85;;;1.55;;
65279;SDS011;51878;55.748;48.742;2023-05-10T19:01:00;3.58;;;1.35;;
65279;SDS011;51878;55.748;48.742;2023-05-10T19:06:02;3.35;;;1.10;;
65279;SDS011;51878;55.748;48.742;2023-05-10T19:11:05;5.68;;;1.38;;
65279;SDS011;51878;55.748;48.742;2023-05-10T19:16:10;2.38;;;1.50;;
65279;SDS011;51878;55.748;48.742;2023-05-10T19:21:18;4.32;;;1.40;;
65279;SDS011;51878;55.748;48.742;2023-05-10T19:26:23;6.43;;;1.67;;
65279;SDS011;51878;55.748;48.742;2023-05-10T19:31:28;6.80;;;1.77;;
65279;SDS011;51878;55.748;48.742;2023-05-10T19:36:30;7.88;;;1.58;;
65279;SDS011;51878;55.748;48.742;2023-05-10T19:41:33;3.65;;;1.55;;
65279;SDS011;51878;55.748;48.742;2023-05-10T19:46:35;4.10;;;1.75;;
65279;SDS011;51878;55.748;48.742;2023-05-10T19:51:40;4.20;;;1.73;;
65279;SDS011;51878;55.748;48.742;2023-05-10T19:56:42;3.15;;;1.80;;
65279;SDS011;51878;55.748;48.742;2023-05-10T20:01:47;7.43;;;1.88;;
65279;SDS011;51878;55.748;48.742;2023-05-10T20:06:49;4.90;;;1.88;;
65279;SDS011;51878;55.748;48.742;2023-05-10T20:11:51;6.63;;;1.67;;
65279;SDS011;51878;55.748;48.742;2023-05-10T20:16:53;7.57;;;1.80;;
65279;SDS011;51878;55.748;48.742;2023-05-10T20:21:58;10.00;;;2.20;;
65279;SDS011;51878;55.748;48.742;2023-05-10T20:27:00;8.18;;;2.05;;
65279;SDS011;51878;55.748;48.742;2023-05-10T20:32:06;3.08;;;1.80;;
65279;SDS011;51878;55.748;48.742;2023-05-10T20:37:08;3.75;;;1.63;;
65279;SDS011;51878;55.748;48.742;2023-05-10T20:42:11;3.50;;;1.95;;
65279;SDS011;51878;55.748;48.742;2023-05-10T20:47:16;2.90;;;1.80;;
65279;SDS011;51878;55.748;48.742;2023-05-10T20:52:18;4.70;;;2.10;;
65279;SDS011;51878;55.748;48.742;2023-05-10T20:57:30;4.38;;;1.92;;
65279;SDS011;51878;55.748;48.742;2023-05-10T21:02:32;6.38;;;1.88;;
65279;SDS011;51878;55.748;48.742;2023-05-10T21:07:34;1.73;;;1.60;;
65279;SDS011;51878;55.748;48.742;2023-05-10T21:12:37;4.55;;;2.33;;
65279;SDS011;51878;55.748;48.742;2023-05-10T21:17:39;9.50;;;1.90;;
65279;SDS011;51878;55.748;48.742;2023-05-10T21:22:41;6.70;;;2.00;;
65279;SDS011;51878;55.748;48.742;2023-05-10T21:27:43;5.25;;;1.95;;
65279;SDS011;51878;55.748;48.742;2023-05-10T21:32:46;2.08;;;1.67;;
65279;SDS011;51878;55.748;48.742;2023-05-10T21:37:48;5.10;;;1.83;;
65279;SDS011;51878;55.748;48.742;2023-05-10T21:42:51;7.47;;;2.47;;
65279;SDS011;51878;55.748;48.742;2023-05-10T21:47:53;6.80;;;5.30;;
65279;SDS011;51878;55.748;48.742;2023-05-10T21:52:55;8.75;;;3.00;;
65279;SDS011;51878;55.748;48.742;2023-05-10T21:57:57;2.90;;;2.08;;
65279;SDS011;51878;55.748;48.742;2023-05-10T22:03:00;6.20;;;1.90;;
65279;SDS011;51878;55.748;48.742;2023-05-10T22:08:08;2.80;;;1.90;;
65279;SDS011;51878;55.748;48.742;2023-05-10T22:13:10;3.90;;;1.80;;
65279;SDS011;51878;55.748;48.742;2023-05-10T22:18:13;1.83;;;1.50;;
65279;SDS011;51878;55.748;48.742;2023-05-10T22:23:15;2.42;;;1.67;;
65279;SDS011;51878;55.748;48.742;2023-05-10T22:28:17;5.35;;;2.10;;
65279;SDS011;51878;55.748;48.742;2023-05-10T22:33:19;6.90;;;2.05;;
65279;SDS011;51878;55.748;48.742;2023-05-10T22:38:22;2.53;;;1.65;;
65279;SDS011;51878;55.748;48.742;2023-05-10T22:43:27;2.28;;;1.65;;
65279;SDS011;51878;55.748;48.742;2023-05-10T22:48:33;3.95;;;1.95;;
65279;SDS011;51878;55.748;48.742;2023-05-10T22:53:36;5.70;;;1.95;;
65279;SDS011;51878;55.748;48.742;2023-05-10T22:58:38;3.67;;;1.90;;
65279;SDS011;51878;55.748;48.742;2023-05-10T23:03:40;2.47;;;1.70;;
65279;SDS011;51878;55.748;48.742;2023-05-10T23:08:43;3.88;;;1.70;;
65279;SDS011;51878;55.748;48.742;2023-05-10T23:13:48;2.05;;;1.60;;
65279;SDS011;51878;55.748;48.742;2023-05-10T23:18:51;4.13;;;1.90;;
65279;SDS011;51878;55.748;48.742;2023-05-10T23:23:53;1.80;;;1.60;;
65279;SDS011;51878;55.748;48.742;2023-05-10T23:28:56;3.97;;;1.90;;
65279;SDS011;51878;55.748;48.742;2023-05-10T23:33:58;2.75;;;1.70;;
65279;SDS011;51878;55.748;48.742;2023-05-10T23:39:00;2.85;;;1.42;;
65279;SDS011;51878;55.748;48.742;2023-05-10T23:44:03;1.52;;;1.40;;
65279;SDS011;51878;55.748;48.742;2023-05-10T23:49:05;3.53;;;1.38;;
65279;SDS011;51878;55.748;48.742;2023-05-10T23:54:07;2.33;;;1.50;;
65279;SDS011;51878;55.748;48.742;2023-05-10T23:59:09;6.53;;;1.27;;
